• Join FlightAware (Why Join?)
  • Login
  • US Flag 
11:22AM EDT


 

Airport Tracker/Info


-or-


 

Live Flight TrackerFlight Track Log ✈ AWE4079 ✈ 18-Sep-2013 ✈ KSDF - KPHL

Flight Track Log - Related Links

Times and Time Zones

All times are in EDT time to prevent confusion due to time zone crossing. See the AWE4079 flight status page for this flight to view local times or setup timezone preferences in your user account.

Time Position Orientation Groundspeed Altitude Reporting Facility
EDT Latitude Longitude Course Direction KTS MPH feet Rate Location/Type
03:09PM 38.0833 -85.6667 90° East 227 261 4,300  Level Louisville TRACON
03:10PM 38.2646 -85.3036 98° East  Level Estimated
03:10PM 38.0803 -85.6258 95° East 263 303 4,600  Level Indianapolis Center
03:11PM 38.2075 -85.1732 119° Southeast  Level FlightAware Approximate
03:11PM 38.0811 -85.5258 89° East 275 316 6,500  Level Indianapolis Center
03:12PM 38.2383 -85.0291 102° East  Level Estimated
03:12PM 38.0761 -85.4192 93° East 296 341 8,800  Level Indianapolis Center
03:13PM 38.1745 -84.9038 123° Southeast  Level FlightAware Approximate
03:13PM 38.0725 -85.3083 92° East 309 356 10,500  Level Indianapolis Center
03:14PM 38.2024 -84.7778 90° East  Level Estimated
03:14PM 38.0550 -85.1572 98° East 362 417 11,900  Level Indianapolis Center
03:15PM 38.0361 -85.0250 100° East 377 434 13,500 1,440 Climbing Indianapolis Center
03:16PM 38.0261 -84.8903 95° East 384 442 14,900 1,380 Climbing Indianapolis Center
03:17PM 38.0186 -84.7525 94° East 390 449 16,400 1,260 Climbing Indianapolis Center
03:18PM 38.0119 -84.6125 93° East 395 455 17,600 1,020 Climbing Indianapolis Center
03:19PM 38.0028 -84.4481 94° East 400 460 18,600 960 Climbing Indianapolis Center
03:20PM 37.9950 -84.3053 94° East 404 465 19,600 840 Climbing Indianapolis Center
03:21PM 37.9875 -84.1592 94° East 411 473 20,400 720 Climbing Indianapolis Center
03:22PM 37.9797 -84.0092 94° East 421 484 21,200 720 Climbing Indianapolis Center
03:23PM 37.9708 -83.8608 94° East 422 486 22,000 840 Climbing Indianapolis Center
03:24PM 37.9619 -83.6822 94° East 432 497 23,000 720 Climbing Indianapolis Center
03:25PM 37.9525 -83.5303 94° East 431 496 23,600 600 Climbing Indianapolis Center
03:26PM 37.9428 -83.3800 95° East 429 494 24,300 660 Climbing Indianapolis Center
03:27PM 37.9333 -83.2275 94° East 433 498 25,000 660 Climbing Indianapolis Center
03:28PM 37.9228 -83.0747 95° East 434 499 25,700 600 Climbing Indianapolis Center
03:29PM 37.9136 -82.9206 94° East 436 502 26,300 720 Climbing Indianapolis Center
03:30PM 37.9019 -82.7439 95° East 431 496 27,300 840 Climbing Indianapolis Center
03:31PM 37.8922 -82.5919 95° East 431 496 28,100 660 Climbing Indianapolis Center
03:32PM 37.8811 -82.4408 95° East 430 495 28,700 420 Climbing Indianapolis Center
03:33PM 37.8711 -82.2878 95° East 434 499 29,000 120 Climbing Indianapolis Center
03:34PM 37.8783 -82.1392 86° East 447 514 29,000  Level Indianapolis Center
03:36PM 37.8872 -81.9458 87° East 460 529 29,000  Level Indianapolis Center
03:37PM 37.8950 -81.7811 87° East 469 540 29,000  Level Indianapolis Center
03:38PM 37.9031 -81.6164 86° East 471 542 29,000  Level Indianapolis Center
03:39PM 37.9103 -81.4506 87° East 475 547 29,000  Level Indianapolis Center
03:40PM 37.9169 -81.2833 87° East 476 548 29,000  Level Indianapolis Center
03:41PM 37.9242 -81.1144 87° East 481 554 29,000  Level Indianapolis Center
03:42PM 37.9328 -80.9119 87° East 482 555 29,000  Level Indianapolis Center
03:44PM 37.9360 -80.6737 87° East  Level FlightAware Approximate
03:47PM 37.9664 -80.0775 87° East 478 550 29,000  Level Washington Center
03:48PM 37.9725 -79.9067 87° East 478 550 29,000  Level Washington Center
03:49PM 37.9786 -79.7383 87° East 478 550 29,000  Level Washington Center
03:50PM 37.9842 -79.5700 88° East 478 550 29,000  Level Washington Center
03:51PM 37.9754 -79.6941 87° East  Level FlightAware Approximate
03:51PM 37.9903 -79.3833 88° East 478 550 29,000  Level Washington Center
03:52PM 37.9803 -79.5541 87° East  Level FlightAware Approximate
03:52PM 37.9933 -79.2147 89° East 478 550 29,000  Level Washington Center
03:53PM 37.9983 -79.0464 88° East 478 550 29,000  Level Washington Center
03:54PM 38.0031 -78.8806 88° East 478 550 29,000  Level Washington Center
03:55PM 38.0078 -78.7069 88° East 478 550 29,000  Level Washington Center
03:56PM 38.0114 -78.5567 88° East 473 544 29,000  Level Washington Center
03:57PM 38.0097 -78.3722 91° East 473 544 29,000  Level Washington Center
03:58PM 38.0136 -78.1983 88° East 479 551 29,000  Level Washington Center
03:59PM 38.0625 -78.0550 67° East 457 526 29,000  Level Washington Center
04:00PM 38.1319 -77.9147 58° Northeast 452 520 29,000  Level Washington Center
04:01PM 38.2014 -77.7794 57° Northeast 452 520 29,000  Level Washington Center
04:02PM 38.2661 -77.6464 58° Northeast 446 513 29,000  Level Washington Center
04:03PM 38.3308 -77.5161 58° Northeast 441 507 29,000 -720 Level Washington Center
04:04PM 38.3956 -77.3825 58° Northeast 436 502 27,600 -1,500 Descending Washington Center
04:05PM 38.4642 -77.2464 57° Northeast 443 510 26,000 -1,620 Descending Washington Center
04:06PM 38.5264 -77.1150 59° Northeast 448 516 24,400 -1,020 Descending Washington Center
04:07PM 38.5861 -76.9942 58° Northeast 428 493 24,000 -300 Descending Washington Center
04:08PM 38.6439 -76.8756 58° Northeast 400 460 23,900 -720 Descending Washington Center
04:09PM 38.6992 -76.7514 60° Northeast 400 460 22,600 -1,620 Descending Washington Center
04:10PM 38.7317 -76.6161 73° East 394 453 20,700 -1,380 Descending Washington Center
04:11PM 38.7619 -76.4808 74° East 394 453 20,000 -1,080 Descending Washington Center
04:12PM 38.7881 -76.3453 76° East 387 445 18,600 -1,380 Descending Washington Center
04:13PM 38.8136 -76.2150 76° East 387 445 17,200 -1,620 Descending Washington Center
04:14PM 38.8414 -76.0875 74° East 374 430 15,400 -1,140 Descending Washington Center
04:15PM 38.8689 -75.9675 74° East 364 419 15,000 -240 Descending Washington Center
04:16PM 38.8983 -75.8397 73° East 359 413 15,000  Level Washington Center
04:17PM 38.9736 -75.7625 39° Northeast 337 388 15,000 -600 Level Washington Center
04:18PM 39.0550 -75.6878 35° Northeast 337 388 13,900 -1,560 Descending Washington Center
04:20PM 39.2500 -75.6667 North 302 348 10,100 -1,560 Descending Philadelphia TRACON
04:21PM 39.3333 -75.6500 North 289 333 9,000 -1,440 Descending Philadelphia TRACON
04:22PM 39.3667 -75.5500 67° East 278 320 7,100 -1,020 Descending Philadelphia TRACON
04:23PM 39.3667 -75.4833 90° East 228 262 7,000 -600 Descending Philadelphia TRACON
04:24PM 39.4000 -75.4000 63° Northeast 240 276 6,000 -960 Descending Philadelphia TRACON
04:25PM 39.4500 -75.3333 46° Northeast 227 261 5,000 -1,020 Descending Philadelphia TRACON
04:26PM 39.4833 -75.2833 49° Northeast 227 261 4,000 -480 Descending Philadelphia TRACON
04:27PM 39.5333 -75.2167 46° Northeast 222 255 4,000  Level Philadelphia TRACON
04:28PM 39.5833 -75.1833 27° Northeast 220 253 4,000  Level Philadelphia TRACON
04:29PM 39.6333 -75.1500 27° Northeast 217 250 4,000  Level Philadelphia TRACON
04:30PM 39.6833 -75.1167 27° Northeast 201 231 4,000  Level Philadelphia TRACON
04:31PM 39.7333 -75.1333 346° North 176 203 4,000 -780 Level Philadelphia TRACON
04:32PM 39.7667 -75.1667 322° Northwest 187 215 2,600 -1,320 Descending Philadelphia TRACON
04:33PM 39.8167 -75.2000 333° Northwest 173 199 1,400 -1,020 Descending Philadelphia TRACON
04:34PM 39.8500 -75.2167 339° North 141 162 600 -840 Descending Philadelphia TRACON